createdAt,value
2018-11-20T00:01:41.646Z,38.30
2018-11-20T00:04:41.733Z,34.73
2018-11-20T00:07:49.440Z,37.27
2018-11-20T00:10:41.805Z,40.53
2018-11-20T00:13:34.565Z,37.43
2018-11-20T00:16:30.902Z,35.43
2018-11-20T00:19:23.912Z,41.47
2018-11-20T00:22:00.229Z,37.10
2018-11-20T00:25:09.729Z,36.60
2018-11-20T00:28:01.535Z,41.70
2018-11-20T00:31:00.689Z,35.23
2018-11-20T00:33:34.328Z,39.50
2018-11-20T00:36:29.793Z,38.60
2018-11-20T00:39:20.769Z,37.30
2018-11-20T00:42:09.910Z,37.20
2018-11-20T00:45:05.356Z,36.20
2018-11-20T00:47:56.584Z,34.30
2018-11-20T00:50:58.500Z,36.47
2018-11-20T00:53:54.948Z,39.07
2018-11-20T00:57:08.647Z,35.10
2018-11-20T00:59:56.726Z,39.60
2018-11-20T01:02:52.713Z,34.73
2018-11-20T01:05:40.192Z,40.23
2018-11-20T01:08:28.918Z,37.87
2018-11-20T01:11:03.441Z,38.10
2018-11-20T01:16:46.692Z,36.43
2018-11-20T01:22:32.249Z,39.63
2018-11-20T01:25:29.244Z,36.77
2018-11-20T01:28:14.105Z,37.77
2018-11-20T01:31:00.733Z,38.97
2018-11-20T01:33:53.676Z,38.53
2018-11-20T01:36:44.270Z,35.20
2018-11-20T01:39:34.951Z,38.40
2018-11-20T01:42:26.954Z,39.13
2018-11-20T01:45:19.952Z,33.17
2018-11-20T01:48:13.127Z,37.23
2018-11-20T01:51:08.946Z,40.63
2018-11-20T01:54:02.236Z,37.50
2018-11-20T01:56:56.382Z,38.50
2018-11-20T01:59:47.075Z,39.17
2018-11-20T02:02:40.334Z,38.57
2018-11-20T02:08:26.270Z,40.60
2018-11-20T02:14:17.640Z,35.63
2018-11-20T02:16:51.155Z,36.97
2018-11-20T02:19:47.400Z,37.73
2018-11-20T02:22:42.887Z,38.47
2018-11-20T02:25:37.895Z,40.50
2018-11-20T02:28:21.817Z,41.00
2018-11-20T02:31:14.378Z,39.20
2018-11-20T02:34:06.193Z,36.00
2018-11-20T02:37:00.820Z,34.73
2018-11-20T02:39:34.043Z,37.00
2018-11-20T02:42:25.549Z,34.23
2018-11-20T02:45:19.000Z,40.93
2018-11-20T02:48:15.794Z,39.70
2018-11-20T02:51:11.296Z,39.50
2018-11-20T02:54:13.509Z,40.70
2018-11-20T02:57:04.407Z,34.73
2018-11-20T02:59:37.795Z,39.60
2018-11-20T03:02:37.261Z,37.97
2018-11-20T03:05:47.660Z,41.87
2018-11-20T03:08:33.226Z,38.77
2018-11-20T03:11:38.144Z,38.07
2018-11-20T03:14:31.861Z,38.53
2018-11-20T03:17:42.782Z,36.40
2018-11-20T03:20:24.078Z,34.87
2018-11-20T03:23:22.584Z,36.83
2018-11-20T03:26:16.790Z,37.00
2018-11-20T03:29:23.261Z,34.87
2018-11-20T03:32:09.868Z,36.57
2018-11-20T03:35:01.070Z,40.17
2018-11-20T03:37:52.302Z,37.23
2018-11-20T03:40:43.075Z,39.60
2018-11-20T03:43:34.024Z,37.23
2018-11-20T03:46:32.991Z,40.93
2018-11-20T03:49:22.487Z,38.40
2018-11-20T03:52:18.437Z,37.97
2018-11-20T03:55:10.383Z,36.40
2018-11-20T03:58:05.228Z,41.93
2018-11-20T04:01:06.368Z,39.43
2018-11-20T04:04:02.126Z,38.63
2018-11-20T04:06:53.153Z,38.80
2018-11-20T04:09:40.039Z,40.77
2018-11-20T04:12:28.666Z,37.50
2018-11-20T04:15:33.007Z,42.50
2018-11-20T04:18:26.161Z,41.07
2018-11-20T04:21:24.489Z,40.50
2018-11-20T04:24:30.041Z,42.47
2018-11-20T04:27:14.011Z,42.23
2018-11-20T04:29:44.672Z,41.03
2018-11-20T04:32:23.430Z,41.10
2018-11-20T04:35:18.025Z,42.07
2018-11-20T04:37:48.983Z,39.90
2018-11-20T04:40:36.381Z,42.77
2018-11-20T04:43:25.881Z,43.57
2018-11-20T04:46:19.185Z,41.40
2018-11-20T04:49:20.862Z,36.37
2018-11-20T04:52:04.569Z,42.00
2018-11-20T04:55:09.264Z,42.27
2018-11-20T04:57:58.750Z,38.80
2018-11-20T05:00:29.863Z,46.03
2018-11-20T05:03:22.002Z,42.13
2018-11-20T05:05:52.910Z,44.43
2018-11-20T05:08:37.708Z,42.17
2018-11-20T05:11:05.949Z,41.10
2018-11-20T05:13:57.209Z,47.43
2018-11-20T05:16:27.903Z,40.60
2018-11-20T05:19:20.775Z,41.43
2018-11-20T05:21:51.852Z,42.50
2018-11-20T05:24:44.301Z,43.50
2018-11-20T05:27:15.104Z,38.40
2018-11-20T05:30:16.717Z,43.03
2018-11-20T05:32:45.065Z,39.97
2018-11-20T05:35:40.095Z,41.17
2018-11-20T05:38:10.908Z,38.97
2018-11-20T05:41:07.259Z,41.83
2018-11-20T05:46:30.725Z,36.50
2018-11-20T05:49:01.868Z,38.67
2018-11-20T05:51:54.948Z,40.00
2018-11-20T05:57:23.160Z,40.93
2018-11-20T05:59:53.797Z,40.20
2018-11-20T06:02:36.374Z,37.10
2018-11-20T06:07:36.691Z,41.90
2018-11-20T06:07:59.143Z,36.97
2018-11-20T06:10:28.408Z,36.70
2018-11-20T06:13:19.567Z,37.80
2018-11-20T06:18:45.512Z,36.57
2018-11-20T06:21:18.784Z,33.47
2018-11-20T06:24:21.245Z,36.40
2018-11-20T06:26:52.031Z,33.90
2018-11-20T06:29:42.951Z,35.17
2018-11-20T06:32:13.746Z,40.87
2018-11-20T06:35:04.723Z,51.57
2018-11-20T06:37:33.994Z,35.60
2018-11-20T06:40:29.418Z,36.87
2018-11-20T06:43:00.202Z,31.13
2018-11-20T06:45:48.270Z,34.30
2018-11-20T06:48:18.882Z,32.73
2018-11-20T06:51:14.191Z,31.93
2018-11-20T06:53:42.133Z,32.53
2018-11-20T06:56:32.970Z,32.70
2018-11-20T06:59:03.523Z,35.47
2018-11-20T07:01:55.684Z,32.57
2018-11-20T07:05:06.975Z,31.10
2018-11-20T07:08:00.340Z,29.43
2018-11-20T07:10:46.393Z,28.10
2018-11-20T07:13:35.209Z,29.20
2018-11-20T07:16:48.177Z,28.10
2018-11-20T07:19:23.445Z,29.43
2018-11-20T07:22:12.690Z,27.53
2018-11-20T07:25:05.413Z,27.77
2018-11-20T07:27:54.454Z,28.50
2018-11-20T07:30:46.200Z,29.23
2018-11-20T07:33:48.831Z,27.27
2018-11-20T07:36:47.880Z,26.20
2018-11-20T07:39:56.687Z,25.80
2018-11-20T07:42:55.330Z,27.30
2018-11-20T07:45:43.189Z,27.70
2018-11-20T07:48:54.010Z,25.33
2018-11-20T07:51:43.373Z,25.13
2018-11-20T07:54:36.446Z,27.27
2018-11-20T07:57:25.337Z,26.17
2018-11-20T08:00:16.741Z,25.73
2018-11-20T08:03:10.619Z,25.73
2018-11-20T08:06:20.997Z,24.63
2018-11-20T08:09:11.320Z,25.93
2018-11-20T08:12:10.340Z,26.90
2018-11-20T08:15:02.332Z,27.73
2018-11-20T08:17:54.766Z,26.27
2018-11-20T08:20:44.139Z,27.83
2018-11-20T08:23:37.277Z,24.63
2018-11-20T08:26:11.271Z,26.93
2018-11-20T08:29:00.352Z,26.77
2018-11-20T08:31:31.052Z,26.50
2018-11-20T08:34:36.622Z,26.67
2018-11-20T08:37:07.385Z,28.53
2018-11-20T08:39:59.319Z,26.40
2018-11-20T08:42:28.338Z,27.47
2018-11-20T08:50:56.369Z,28.30
2018-11-20T08:53:32.032Z,28.67
2018-11-20T08:56:27.186Z,29.90
2018-11-20T08:58:57.877Z,29.63
2018-11-20T09:01:35.786Z,28.47
2018-11-20T09:04:06.234Z,32.53
2018-11-20T09:06:54.442Z,30.03
2018-11-20T09:09:45.959Z,29.67
2018-11-20T09:12:28.945Z,31.23
2018-11-20T09:15:20.563Z,33.33
2018-11-20T09:21:26.352Z,33.57
2018-11-20T09:23:56.874Z,38.03
2018-11-20T09:26:47.287Z,36.50
2018-11-20T09:29:38.175Z,37.07
2018-11-20T09:32:30.550Z,38.37
2018-11-20T09:35:21.596Z,35.63
2018-11-20T09:38:16.709Z,35.87
2018-11-20T09:41:13.042Z,32.80
2018-11-20T09:44:02.757Z,30.30
2018-11-20T09:46:48.422Z,31.70
2018-11-20T09:49:44.967Z,30.07
2018-11-20T09:52:37.081Z,29.43
2018-11-20T09:55:26.853Z,26.27
2018-11-20T10:00:56.747Z,25.63
2018-11-20T10:03:53.526Z,22.30
2018-11-20T10:06:50.812Z,21.53
2018-11-20T10:09:21.690Z,19.50
2018-11-20T10:12:10.797Z,13.37
2018-11-20T10:15:03.226Z,14.07
2018-11-20T10:17:36.771Z,13.80
2018-11-20T10:20:28.079Z,11.83
2018-11-20T10:23:40.345Z,11.90
2018-11-20T10:26:11.134Z,13.73
2018-11-20T10:28:44.942Z,13.57
2018-11-20T10:31:42.795Z,18.90
2018-11-20T10:34:40.010Z,11.67
2018-11-20T10:37:13.492Z,11.00
2018-11-20T10:40:13.890Z,11.97
2018-11-20T10:42:47.937Z,12.10
2018-11-20T10:45:36.898Z,13.07
2018-11-20T10:48:28.119Z,11.87
2018-11-20T10:51:17.315Z,12.10
2018-11-20T10:54:20.262Z,11.30
2018-11-20T10:57:08.305Z,10.63
2018-11-20T11:00:07.472Z,11.73
2018-11-20T11:02:56.912Z,13.63
2018-11-20T11:05:27.505Z,10.73
2018-11-20T11:08:20.428Z,12.10
2018-11-20T11:10:51.059Z,11.57
2018-11-20T11:13:42.718Z,11.60
2018-11-20T11:19:20.620Z,12.57
2018-11-20T11:24:51.170Z,13.07
2018-11-20T11:30:18.169Z,11.00
2018-11-20T11:33:04.032Z,12.20
2018-11-20T11:35:57.188Z,12.27
2018-11-20T11:38:48.572Z,12.63
2018-11-20T11:41:47.560Z,12.43
2018-11-20T11:44:44.244Z,10.17
2018-11-20T11:47:49.851Z,10.43
2018-11-20T11:50:38.952Z,10.93
2018-11-20T11:53:37.145Z,11.43
2018-11-20T11:56:26.622Z,11.57
2018-11-20T11:59:15.487Z,13.57
2018-11-20T12:04:46.387Z,12.60
2018-11-20T12:07:20.216Z,12.77
2018-11-20T12:10:04.077Z,11.30
2018-11-20T12:12:59.293Z,11.23
2018-11-20T12:15:32.733Z,12.97
2018-11-20T12:18:30.921Z,11.90
2018-11-20T12:21:24.262Z,12.07
2018-11-20T12:24:27.331Z,10.20
2018-11-20T12:27:08.678Z,13.00
2018-11-20T12:30:02.877Z,12.87
2018-11-20T12:33:00.190Z,12.80
2018-11-20T12:35:36.177Z,12.43
2018-11-20T12:38:17.267Z,11.67
2018-11-20T12:40:45.100Z,13.23
2018-11-20T12:43:38.033Z,11.17
2018-11-20T12:46:07.366Z,12.43
2018-11-20T12:48:58.869Z,12.10
2018-11-20T12:51:29.470Z,12.77
2018-11-20T12:54:21.049Z,11.80
2018-11-20T12:56:51.562Z,12.57
2018-11-20T13:00:02.889Z,14.63
2018-11-20T13:02:33.479Z,14.60
2018-11-20T13:05:32.676Z,12.63
2018-11-20T13:08:01.757Z,14.47
2018-11-20T13:10:51.439Z,15.10
2018-11-20T13:13:42.608Z,16.13
2018-11-20T13:16:15.850Z,15.83
2018-11-20T13:19:03.413Z,14.90
2018-11-20T13:21:54.378Z,15.63
2018-11-20T13:24:40.919Z,16.60
2018-11-20T13:27:35.755Z,15.13
2018-11-20T13:30:34.803Z,16.30
2018-11-20T13:33:30.051Z,16.17
2018-11-20T13:36:18.479Z,15.37
2018-11-20T13:39:09.816Z,16.37
2018-11-20T13:42:01.774Z,15.70
2018-11-20T13:44:53.245Z,16.07
2018-11-20T13:47:57.500Z,16.97
2018-11-20T13:50:49.799Z,16.23
2018-11-20T13:53:53.085Z,16.60
2018-11-20T13:56:57.046Z,16.73
2018-11-20T13:59:39.886Z,16.27
2018-11-20T14:02:31.210Z,18.23
2018-11-20T14:08:02.130Z,17.43
2018-11-20T14:10:56.923Z,16.43
2018-11-20T14:13:41.342Z,16.90
2018-11-20T14:16:40.789Z,17.23
2018-11-20T14:19:27.054Z,17.83
2018-11-20T14:22:23.753Z,16.80
2018-11-20T14:25:19.585Z,37.77
2018-11-20T14:28:08.757Z,18.13
2018-11-20T14:30:51.608Z,15.13
2018-11-20T14:33:32.973Z,17.20
2018-11-20T14:36:25.000Z,15.83
2018-11-20T14:39:28.915Z,17.40
2018-11-20T14:42:33.854Z,17.27
2018-11-20T14:45:38.116Z,16.87
2018-11-20T14:48:34.248Z,16.83
2018-11-20T14:51:28.083Z,15.70
2018-11-20T14:54:20.825Z,17.83
2018-11-20T14:57:10.423Z,16.63
2018-11-20T15:00:05.438Z,18.27
2018-11-20T15:03:11.270Z,17.73
2018-11-20T15:06:12.409Z,15.10
2018-11-20T15:09:01.091Z,16.27
2018-11-20T15:12:02.951Z,18.23
2018-11-20T15:14:57.183Z,16.87
2018-11-20T15:18:08.450Z,16.10
2018-11-20T15:21:02.936Z,16.97
2018-11-20T15:23:49.598Z,17.87
2018-11-20T15:26:40.412Z,17.17
2018-11-20T15:29:33.799Z,16.47
2018-11-20T15:32:24.830Z,16.00
2018-11-20T15:35:16.052Z,15.70
2018-11-20T15:38:00.894Z,16.97
2018-11-20T15:41:08.688Z,15.83
2018-11-20T15:44:05.361Z,21.87
2018-11-20T15:46:59.028Z,18.07
2018-11-20T15:49:48.239Z,16.53
2018-11-20T15:52:46.860Z,17.80
2018-11-20T15:55:52.755Z,15.63
2018-11-20T15:58:51.232Z,15.83
2018-11-20T16:01:40.317Z,16.60
2018-11-20T16:04:32.265Z,17.40
2018-11-20T16:07:21.440Z,19.07
2018-11-20T16:10:23.301Z,15.60
2018-11-20T16:13:14.109Z,18.70
2018-11-20T16:16:05.056Z,18.90
2018-11-20T16:18:55.563Z,18.50
2018-11-20T16:21:57.585Z,17.47
2018-11-20T16:24:50.850Z,17.67
2018-11-20T16:27:43.850Z,19.80
2018-11-20T16:30:37.786Z,19.93
2018-11-20T16:33:31.633Z,19.37
2018-11-20T16:36:21.308Z,17.83
2018-11-20T16:39:12.099Z,22.90
2018-11-20T16:42:08.875Z,24.03
2018-11-20T16:45:05.388Z,20.37
2018-11-20T16:51:06.366Z,20.07
2018-11-20T16:53:56.103Z,20.23
2018-11-20T16:57:00.682Z,19.20
2018-11-20T16:59:34.649Z,22.10
2018-11-20T17:02:22.252Z,22.13
2018-11-20T17:05:18.315Z,21.50
2018-11-20T17:07:47.509Z,21.63
2018-11-20T17:10:53.735Z,24.20
2018-11-20T17:13:49.949Z,22.70
2018-11-20T17:16:40.168Z,24.53
2018-11-20T17:19:31.592Z,21.47
2018-11-20T17:22:21.090Z,22.23
2018-11-20T17:25:12.750Z,21.53
2018-11-20T17:28:02.634Z,23.43
2018-11-20T17:31:10.718Z,22.77
2018-11-20T17:34:07.709Z,23.37
2018-11-20T17:37:12.339Z,22.27
2018-11-20T17:40:00.936Z,23.97
2018-11-20T17:43:06.234Z,23.53
2018-11-20T17:45:56.323Z,21.00
2018-11-20T17:48:47.952Z,22.33
2018-11-20T17:51:37.199Z,24.20
2018-11-20T17:54:33.025Z,23.90
2018-11-20T17:57:26.408Z,24.87
2018-11-20T18:00:25.551Z,23.43
2018-11-20T18:03:22.128Z,25.77
2018-11-20T18:06:14.762Z,25.63
2018-11-20T18:09:05.549Z,24.20
2018-11-20T18:11:56.242Z,23.77
2018-11-20T18:15:02.296Z,26.07
2018-11-20T18:17:55.356Z,25.10
2018-11-20T18:20:41.861Z,23.80
2018-11-20T18:23:30.594Z,24.23
2018-11-20T18:26:25.923Z,29.13
2018-11-20T18:29:18.174Z,25.90
2018-11-20T18:32:14.501Z,26.30
2018-11-20T18:35:06.118Z,26.93
2018-11-20T18:38:12.518Z,27.97
2018-11-20T18:41:03.422Z,28.47
2018-11-20T18:43:52.525Z,31.73
2018-11-20T18:46:44.128Z,24.33
2018-11-20T18:49:29.959Z,28.43
2018-11-20T18:52:31.467Z,26.43
2018-11-20T18:55:20.370Z,30.33
2018-11-20T18:58:18.881Z,28.23
2018-11-20T19:01:16.705Z,29.47
2018-11-20T19:04:25.391Z,27.77
2018-11-20T19:07:52.882Z,25.10
2018-11-20T19:10:39.978Z,25.87
2018-11-20T19:13:34.543Z,28.07
2018-11-20T19:16:22.894Z,26.80
2018-11-20T19:19:30.562Z,29.43
2018-11-20T19:22:31.172Z,28.30
2018-11-20T19:28:35.373Z,27.93
2018-11-20T19:31:41.417Z,25.47
2018-11-20T19:34:36.262Z,24.73
2018-11-20T19:37:36.798Z,26.17
2018-11-20T19:40:39.681Z,26.23
2018-11-20T19:43:32.076Z,27.43
2018-11-20T19:46:35.424Z,25.40
2018-11-20T19:49:36.080Z,24.20
2018-11-20T19:52:36.222Z,27.57
2018-11-20T19:58:46.085Z,24.30
2018-11-20T20:01:46.722Z,24.77
2018-11-20T20:04:50.384Z,26.77
2018-11-20T20:07:54.738Z,25.50
2018-11-20T20:13:59.193Z,24.73
2018-11-20T20:16:59.915Z,26.93
2018-11-20T20:20:00.097Z,24.97
2018-11-20T20:23:00.566Z,26.80
2018-11-20T20:25:50.238Z,27.93
2018-11-20T20:28:50.211Z,25.37
2018-11-20T20:31:51.186Z,26.20
2018-11-20T20:34:51.851Z,26.10
2018-11-20T20:37:48.369Z,25.17
2018-11-20T20:40:48.931Z,25.17
2018-11-20T20:43:50.446Z,26.53
2018-11-20T20:50:14.406Z,28.37
2018-11-20T20:53:14.938Z,28.03
2018-11-20T20:56:16.513Z,25.80
2018-11-20T20:59:22.814Z,29.80
2018-11-20T21:02:22.942Z,28.00
2018-11-20T21:05:26.615Z,27.37
2018-11-20T21:08:27.235Z,26.23
2018-11-20T21:11:27.616Z,29.67
2018-11-20T21:14:28.677Z,27.07
2018-11-20T21:20:33.967Z,27.97
2018-11-20T21:23:34.590Z,28.13
2018-11-20T21:26:35.123Z,28.27
2018-11-20T21:29:36.064Z,29.93
2018-11-20T21:32:40.284Z,29.37
2018-11-20T21:35:46.598Z,32.60
2018-11-20T21:38:42.115Z,29.30
2018-11-20T21:41:42.778Z,31.13
2018-11-20T21:44:42.833Z,26.77
2018-11-20T21:47:44.745Z,29.00
2018-11-20T21:50:33.421Z,29.87
2018-11-20T21:53:41.161Z,33.37
2018-11-20T21:56:42.038Z,33.27
2018-11-20T21:59:42.577Z,29.20
2018-11-20T22:02:45.999Z,30.97
2018-11-20T22:05:48.975Z,31.10
2018-11-20T22:08:49.968Z,27.97
2018-11-20T22:11:50.374Z,33.67
2018-11-20T22:14:50.594Z,30.50
2018-11-20T22:17:51.175Z,29.63
2018-11-20T22:20:51.649Z,30.57
2018-11-20T22:23:51.945Z,29.60
2018-11-20T22:26:52.255Z,29.00
2018-11-20T22:29:59.355Z,29.53
2018-11-20T22:33:05.324Z,32.10
2018-11-20T22:36:06.244Z,33.00
2018-11-20T22:39:06.366Z,30.63
2018-11-20T22:42:06.621Z,31.57
2018-11-20T22:45:07.003Z,31.33
2018-11-20T22:48:13.334Z,29.53
2018-11-20T22:51:16.437Z,30.40
2018-11-20T22:54:23.198Z,32.43
2018-11-20T22:57:26.210Z,30.20
2018-11-20T23:00:32.442Z,30.83
2018-11-20T23:03:32.515Z,30.40
2018-11-20T23:06:28.005Z,35.33
2018-11-20T23:09:10.933Z,34.63
2018-11-20T23:11:52.825Z,32.83
2018-11-20T23:14:34.480Z,32.80
2018-11-20T23:17:16.171Z,34.27
2018-11-20T23:19:57.999Z,31.57
2018-11-20T23:22:40.081Z,33.77
2018-11-20T23:25:21.511Z,32.17
2018-11-20T23:28:02.940Z,31.53
2018-11-20T23:30:44.468Z,30.20
2018-11-20T23:33:26.028Z,32.70
2018-11-20T23:36:08.312Z,29.67
2018-11-20T23:38:49.807Z,29.40
2018-11-20T23:41:31.313Z,29.40
2018-11-20T23:44:13.028Z,30.03
2018-11-20T23:46:54.741Z,32.50
2018-11-20T23:49:36.345Z,30.40
2018-11-20T23:52:18.026Z,31.77
2018-11-20T23:54:59.482Z,32.83
2018-11-20T23:57:40.864Z,30.80
